METAR AND TAF INFORMATION
METAR FOR VAAH
ADDS - METARS form results

(1807 UTC 24 September 2022)
Data provider http://aviationweather.gov/metar/data/
 
METAR text: VAAH 241800Z 23005KT 4000 HZ NSC 29/22 Q1006 NOSIG
Conditions at: VAAH (AHMADABAD , IN) observed 1800 UTC 24 September 2022
Temperature: 29.0°C (84°F)
Dewpoint: 22.0°C (72°F) [RH = 66%]
Pressure (altimeter): 29.70 inches Hg (1006.0 mb)
Winds: from the SW (230 degrees) at 6 MPH (5 knots; 2.6 m/s)
Visibility: 2.49 miles (4.01 km)
Ceiling: at least 12,000 feet AGL
Clouds: sky clear below 12,000 feet AGL
Weather: HZ  (haze)

METAR text: VAAH 241730Z 20006KT 4000 HZ NSC 29/23 Q1006 NOSIG
Conditions at: VAAH (AHMADABAD , IN) observed 1730 UTC 24 September 2022
Temperature: 29.0°C (84°F)
Dewpoint: 23.0°C (73°F) [RH = 70%]
Pressure (altimeter): 29.70 inches Hg (1006.0 mb)
Winds: from the SSW (200 degrees) at 7 MPH (6 knots; 3.1 m/s)
Visibility: 2.49 miles (4.01 km)
Ceiling: at least 12,000 feet AGL
Clouds: sky clear below 12,000 feet AGL
Weather: HZ  (haze)

Forecast for: VAAH (AHMADABAD , IN)
Text: TAF VAAH 241700Z 2418/2503 23005KT 4000 HZ NSC
Forecast period: 1800 to 2100 UTC 24 September 2022
Forecast type: FROM: standard forecast or significant change
Winds: from the SW (230 degrees) at 6 MPH (5 knots; 2.6 m/s)
Visibility: 2.49 miles (4.01 km)
Ceiling: unknown
Clouds: missing
Weather: HZ  (haze)
Text: BECMG 2421/2423 27004KT BR
Forecast period: 2100 UTC 24 September 2022 to 0100 UTC 25 September 2022
Forecast type: BECOMING: Conditions expected to become as follows by 2300 UTC 24 September 2022
Winds: from the W (270 degrees) at 5 MPH (4 knots; 2.1 m/s)
Visibility: 2.49 miles (4.01 km)
Ceiling: unknown
Clouds: missing
Weather: BR  (mist)
Text: BECMG 2501/2503 23004KT 3000 BR FEW0020
Forecast period: 0100 to 0300 UTC 25 September 2022
Forecast type: BECOMING: Conditions expected to become as follows by 0300 UTC 25 September 2022
Winds: from the SW (230 degrees) at 5 MPH (4 knots; 2.1 m/s)
Visibility: 1.86 miles (2.99 km)
Ceiling: unknown
Clouds: missing
Weather: BR  (mist)

 AIRPORT MAP

 RUNWAY INFORMATION
Runway 05 Runway length 11447 ft Runway width 150 ft
Runway elevation 180 ft Runway displaced threshold 0 ft Runway heading 45
Runway 23 Runway length 11447 ft Runway width 150 ft
Runway elevation 189 ft Runway displaced threshold 0 ft Runway heading 225

 AIRPORT FREQUENCIES
Type ACC Name RADAR Frequency 123.75 MHZ
Type APP Name APPROACH Frequency 119.8 MHZ
Type ATIS Name ATIS Frequency 126.8 MHZ
Type TWR Name TOWER Frequency 119.6 MHZ

 AIRPORT NEAR NAVIGATION AIDS
Type VOR-DME Name Ahmedabad Frequency 113100 KHZ
Type NDB Name Ahmedabad Frequency 215 KHZ





Powered by Virtual Airlines Manager

Maps by Rafael Santos